sensor_id;sensor_type;location;lat;lon;timestamp;P1;durP1;ratioP1;P2;durP2;ratioP2
34481;SDS011;20720;48.886;9.388;2022-12-20T00:02:21;22.83;;;9.90;;
34481;SDS011;20720;48.886;9.388;2022-12-20T00:04:47;20.45;;;10.30;;
34481;SDS011;20720;48.886;9.388;2022-12-20T00:07:12;19.58;;;10.15;;
34481;SDS011;20720;48.886;9.388;2022-12-20T00:09:37;18.90;;;9.90;;
34481;SDS011;20720;48.886;9.388;2022-12-20T00:12:03;19.55;;;10.82;;
34481;SDS011;20720;48.886;9.388;2022-12-20T00:14:28;20.55;;;10.60;;
34481;SDS011;20720;48.886;9.388;2022-12-20T00:16:53;19.60;;;10.45;;
34481;SDS011;20720;48.886;9.388;2022-12-20T00:19:18;24.30;;;11.10;;
34481;SDS011;20720;48.886;9.388;2022-12-20T00:21:44;19.27;;;10.43;;
34481;SDS011;20720;48.886;9.388;2022-12-20T00:24:09;21.20;;;10.02;;
34481;SDS011;20720;48.886;9.388;2022-12-20T00:26:35;21.85;;;11.75;;
34481;SDS011;20720;48.886;9.388;2022-12-20T00:29:02;24.33;;;10.23;;
34481;SDS011;20720;48.886;9.388;2022-12-20T00:31:28;21.85;;;10.98;;
34481;SDS011;20720;48.886;9.388;2022-12-20T00:33:55;21.00;;;10.07;;
34481;SDS011;20720;48.886;9.388;2022-12-20T00:36:22;24.17;;;10.60;;
34481;SDS011;20720;48.886;9.388;2022-12-20T00:38:49;18.30;;;10.32;;
34481;SDS011;20720;48.886;9.388;2022-12-20T00:41:20;17.50;;;9.70;;
34481;SDS011;20720;48.886;9.388;2022-12-20T00:43:47;19.45;;;10.10;;
34481;SDS011;20720;48.886;9.388;2022-12-20T00:46:14;24.35;;;11.93;;
34481;SDS011;20720;48.886;9.388;2022-12-20T00:48:40;24.25;;;11.80;;
34481;SDS011;20720;48.886;9.388;2022-12-20T00:51:07;22.33;;;10.75;;
34481;SDS011;20720;48.886;9.388;2022-12-20T00:53:35;18.63;;;9.65;;
34481;SDS011;20720;48.886;9.388;2022-12-20T00:56:01;17.83;;;9.77;;
34481;SDS011;20720;48.886;9.388;2022-12-20T00:58:27;17.83;;;9.32;;
34481;SDS011;20720;48.886;9.388;2022-12-20T01:00:53;17.88;;;9.45;;
34481;SDS011;20720;48.886;9.388;2022-12-20T01:03:19;18.95;;;10.30;;
34481;SDS011;20720;48.886;9.388;2022-12-20T01:05:54;18.60;;;10.85;;
34481;SDS011;20720;48.886;9.388;2022-12-20T01:08:22;18.98;;;9.80;;
34481;SDS011;20720;48.886;9.388;2022-12-20T01:11:01;18.05;;;9.55;;
34481;SDS011;20720;48.886;9.388;2022-12-20T01:13:29;20.45;;;10.75;;
34481;SDS011;20720;48.886;9.388;2022-12-20T01:15:55;24.13;;;11.90;;
34481;SDS011;20720;48.886;9.388;2022-12-20T01:18:21;22.05;;;12.82;;
34481;SDS011;20720;48.886;9.388;2022-12-20T01:20:47;25.30;;;12.95;;
34481;SDS011;20720;48.886;9.388;2022-12-20T01:23:12;21.15;;;11.68;;
34481;SDS011;20720;48.886;9.388;2022-12-20T01:25:38;20.88;;;11.63;;
34481;SDS011;20720;48.886;9.388;2022-12-20T01:28:03;22.05;;;12.60;;
34481;SDS011;20720;48.886;9.388;2022-12-20T01:30:28;27.30;;;13.52;;
34481;SDS011;20720;48.886;9.388;2022-12-20T01:32:54;22.23;;;11.98;;
34481;SDS011;20720;48.886;9.388;2022-12-20T01:35:19;24.88;;;12.40;;
34481;SDS011;20720;48.886;9.388;2022-12-20T01:37:44;23.85;;;12.43;;
34481;SDS011;20720;48.886;9.388;2022-12-20T01:40:09;19.58;;;11.07;;
34481;SDS011;20720;48.886;9.388;2022-12-20T01:42:35;25.00;;;11.95;;
34481;SDS011;20720;48.886;9.388;2022-12-20T01:45:01;21.35;;;11.98;;
34481;SDS011;20720;48.886;9.388;2022-12-20T01:47:31;21.27;;;10.70;;
34481;SDS011;20720;48.886;9.388;2022-12-20T01:49:59;22.48;;;11.00;;
34481;SDS011;20720;48.886;9.388;2022-12-20T01:52:32;20.98;;;11.02;;
34481;SDS011;20720;48.886;9.388;2022-12-20T01:55:03;22.58;;;12.35;;
34481;SDS011;20720;48.886;9.388;2022-12-20T01:57:42;22.80;;;11.35;;
34481;SDS011;20720;48.886;9.388;2022-12-20T02:00:12;22.05;;;11.68;;
34481;SDS011;20720;48.886;9.388;2022-12-20T02:02:38;20.98;;;12.07;;
34481;SDS011;20720;48.886;9.388;2022-12-20T02:05:04;23.20;;;11.52;;
34481;SDS011;20720;48.886;9.388;2022-12-20T02:07:30;21.65;;;10.80;;
34481;SDS011;20720;48.886;9.388;2022-12-20T02:09:57;20.73;;;10.80;;
34481;SDS011;20720;48.886;9.388;2022-12-20T02:12:26;20.30;;;11.13;;
34481;SDS011;20720;48.886;9.388;2022-12-20T02:26:00;18.30;;;9.43;;
34481;SDS011;20720;48.886;9.388;2022-12-20T02:28:58;17.58;;;9.43;;
34481;SDS011;20720;48.886;9.388;2022-12-20T02:31:38;19.00;;;9.32;;
34481;SDS011;20720;48.886;9.388;2022-12-20T02:34:08;19.58;;;9.93;;
34481;SDS011;20720;48.886;9.388;2022-12-20T02:36:36;19.15;;;10.20;;
34481;SDS011;20720;48.886;9.388;2022-12-20T02:39:01;18.98;;;9.32;;
34481;SDS011;20720;48.886;9.388;2022-12-20T02:41:32;18.50;;;9.13;;
34481;SDS011;20720;48.886;9.388;2022-12-20T02:44:04;16.90;;;9.25;;
34481;SDS011;20720;48.886;9.388;2022-12-20T02:46:53;21.77;;;9.63;;
34481;SDS011;20720;48.886;9.388;2022-12-20T02:49:23;18.67;;;9.50;;
34481;SDS011;20720;48.886;9.388;2022-12-20T02:51:51;17.30;;;9.32;;
34481;SDS011;20720;48.886;9.388;2022-12-20T02:54:19;18.63;;;10.43;;
34481;SDS011;20720;48.886;9.388;2022-12-20T02:56:53;17.23;;;9.32;;
34481;SDS011;20720;48.886;9.388;2022-12-20T02:59:31;16.70;;;8.77;;
34481;SDS011;20720;48.886;9.388;2022-12-20T03:02:03;17.60;;;9.45;;
34481;SDS011;20720;48.886;9.388;2022-12-20T03:04:32;19.42;;;9.77;;
34481;SDS011;20720;48.886;9.388;2022-12-20T03:07:03;16.88;;;8.98;;
34481;SDS011;20720;48.886;9.388;2022-12-20T03:09:35;19.58;;;8.70;;
34481;SDS011;20720;48.886;9.388;2022-12-20T03:12:03;14.65;;;8.57;;
34481;SDS011;20720;48.886;9.388;2022-12-20T03:14:28;17.00;;;9.05;;
34481;SDS011;20720;48.886;9.388;2022-12-20T03:16:54;18.88;;;9.80;;
34481;SDS011;20720;48.886;9.388;2022-12-20T03:19:19;18.13;;;9.38;;
34481;SDS011;20720;48.886;9.388;2022-12-20T03:21:45;22.48;;;11.23;;
34481;SDS011;20720;48.886;9.388;2022-12-20T03:24:10;22.33;;;11.90;;
34481;SDS011;20720;48.886;9.388;2022-12-20T03:26:37;21.67;;;12.10;;
34481;SDS011;20720;48.886;9.388;2022-12-20T03:29:03;23.60;;;11.63;;
34481;SDS011;20720;48.886;9.388;2022-12-20T03:31:28;20.85;;;11.25;;
34481;SDS011;20720;48.886;9.388;2022-12-20T03:33:54;22.73;;;11.60;;
34481;SDS011;20720;48.886;9.388;2022-12-20T03:36:20;22.55;;;11.38;;
34481;SDS011;20720;48.886;9.388;2022-12-20T03:38:47;24.40;;;12.20;;
34481;SDS011;20720;48.886;9.388;2022-12-20T03:41:16;19.25;;;10.63;;
34481;SDS011;20720;48.886;9.388;2022-12-20T03:43:43;18.75;;;10.18;;
34481;SDS011;20720;48.886;9.388;2022-12-20T03:46:08;17.15;;;9.13;;
34481;SDS011;20720;48.886;9.388;2022-12-20T03:48:33;18.10;;;9.50;;
34481;SDS011;20720;48.886;9.388;2022-12-20T03:50:58;16.35;;;9.40;;
34481;SDS011;20720;48.886;9.388;2022-12-20T03:53:24;16.48;;;8.93;;
34481;SDS011;20720;48.886;9.388;2022-12-20T03:55:49;17.67;;;9.85;;
34481;SDS011;20720;48.886;9.388;2022-12-20T03:58:14;14.63;;;8.32;;
34481;SDS011;20720;48.886;9.388;2022-12-20T04:00:40;19.50;;;10.02;;
34481;SDS011;20720;48.886;9.388;2022-12-20T04:03:05;14.40;;;9.00;;
34481;SDS011;20720;48.886;9.388;2022-12-20T04:05:30;18.35;;;9.73;;
34481;SDS011;20720;48.886;9.388;2022-12-20T04:07:56;17.65;;;9.52;;
34481;SDS011;20720;48.886;9.388;2022-12-20T04:10:21;16.42;;;9.05;;
34481;SDS011;20720;48.886;9.388;2022-12-20T04:12:46;17.67;;;8.52;;
34481;SDS011;20720;48.886;9.388;2022-12-20T04:15:12;18.25;;;10.07;;
34481;SDS011;20720;48.886;9.388;2022-12-20T04:17:37;18.13;;;9.23;;
34481;SDS011;20720;48.886;9.388;2022-12-20T04:20:02;14.93;;;8.93;;
34481;SDS011;20720;48.886;9.388;2022-12-20T04:22:43;17.23;;;9.45;;
34481;SDS011;20720;48.886;9.388;2022-12-20T04:25:12;17.80;;;10.38;;
34481;SDS011;20720;48.886;9.388;2022-12-20T04:27:38;24.00;;;12.85;;
34481;SDS011;20720;48.886;9.388;2022-12-20T04:30:03;20.75;;;12.50;;
34481;SDS011;20720;48.886;9.388;2022-12-20T04:32:29;21.42;;;13.15;;
34481;SDS011;20720;48.886;9.388;2022-12-20T04:34:54;23.77;;;13.98;;
34481;SDS011;20720;48.886;9.388;2022-12-20T04:37:19;18.80;;;11.10;;
34481;SDS011;20720;48.886;9.388;2022-12-20T04:39:45;20.20;;;10.75;;
34481;SDS011;20720;48.886;9.388;2022-12-20T04:42:10;19.40;;;9.85;;
34481;SDS011;20720;48.886;9.388;2022-12-20T04:44:35;16.73;;;9.00;;
34481;SDS011;20720;48.886;9.388;2022-12-20T04:47:01;19.10;;;8.95;;
34481;SDS011;20720;48.886;9.388;2022-12-20T04:49:26;16.40;;;9.07;;
34481;SDS011;20720;48.886;9.388;2022-12-20T04:51:51;16.95;;;9.10;;
34481;SDS011;20720;48.886;9.388;2022-12-20T04:54:16;17.05;;;8.68;;
34481;SDS011;20720;48.886;9.388;2022-12-20T04:56:42;15.98;;;8.80;;
34481;SDS011;20720;48.886;9.388;2022-12-20T04:59:07;19.17;;;9.57;;
34481;SDS011;20720;48.886;9.388;2022-12-20T05:01:32;18.17;;;9.02;;
34481;SDS011;20720;48.886;9.388;2022-12-20T05:03:58;15.02;;;8.75;;
34481;SDS011;20720;48.886;9.388;2022-12-20T05:06:23;17.55;;;9.77;;
34481;SDS011;20720;48.886;9.388;2022-12-20T05:08:48;17.95;;;9.10;;
34481;SDS011;20720;48.886;9.388;2022-12-20T05:11:14;17.30;;;9.38;;
34481;SDS011;20720;48.886;9.388;2022-12-20T05:13:39;17.20;;;9.00;;
34481;SDS011;20720;48.886;9.388;2022-12-20T05:16:05;18.50;;;9.00;;
34481;SDS011;20720;48.886;9.388;2022-12-20T05:18:30;18.08;;;9.52;;
34481;SDS011;20720;48.886;9.388;2022-12-20T05:20:56;19.50;;;9.52;;
34481;SDS011;20720;48.886;9.388;2022-12-20T05:23:41;19.27;;;8.90;;
34481;SDS011;20720;48.886;9.388;2022-12-20T05:26:26;16.35;;;8.40;;
34481;SDS011;20720;48.886;9.388;2022-12-20T05:28:53;15.82;;;8.45;;
34481;SDS011;20720;48.886;9.388;2022-12-20T05:31:19;16.50;;;8.60;;
34481;SDS011;20720;48.886;9.388;2022-12-20T05:33:44;17.60;;;9.20;;
34481;SDS011;20720;48.886;9.388;2022-12-20T05:36:09;15.95;;;8.38;;
34481;SDS011;20720;48.886;9.388;2022-12-20T05:38:35;14.48;;;8.25;;
34481;SDS011;20720;48.886;9.388;2022-12-20T05:41:00;13.77;;;8.10;;
34481;SDS011;20720;48.886;9.388;2022-12-20T05:43:25;15.80;;;8.98;;
34481;SDS011;20720;48.886;9.388;2022-12-20T05:45:51;18.42;;;8.85;;
34481;SDS011;20720;48.886;9.388;2022-12-20T05:48:17;15.52;;;8.35;;
34481;SDS011;20720;48.886;9.388;2022-12-20T05:50:44;15.00;;;7.85;;
34481;SDS011;20720;48.886;9.388;2022-12-20T05:53:13;14.13;;;7.93;;
34481;SDS011;20720;48.886;9.388;2022-12-20T05:55:43;15.88;;;8.68;;
34481;SDS011;20720;48.886;9.388;2022-12-20T05:58:11;16.63;;;8.70;;
34481;SDS011;20720;48.886;9.388;2022-12-20T06:00:37;17.05;;;8.93;;
34481;SDS011;20720;48.886;9.388;2022-12-20T06:03:04;14.93;;;8.30;;
34481;SDS011;20720;48.886;9.388;2022-12-20T06:05:30;16.63;;;8.55;;
34481;SDS011;20720;48.886;9.388;2022-12-20T06:07:56;17.20;;;8.60;;
34481;SDS011;20720;48.886;9.388;2022-12-20T06:10:21;17.75;;;9.48;;
34481;SDS011;20720;48.886;9.388;2022-12-20T06:12:46;16.75;;;9.07;;
34481;SDS011;20720;48.886;9.388;2022-12-20T06:15:11;15.57;;;8.73;;
34481;SDS011;20720;48.886;9.388;2022-12-20T06:17:39;16.15;;;8.15;;
34481;SDS011;20720;48.886;9.388;2022-12-20T06:20:04;15.32;;;8.38;;
34481;SDS011;20720;48.886;9.388;2022-12-20T06:22:30;15.35;;;8.55;;
34481;SDS011;20720;48.886;9.388;2022-12-20T06:24:55;14.55;;;8.27;;
34481;SDS011;20720;48.886;9.388;2022-12-20T06:27:21;15.77;;;8.57;;
34481;SDS011;20720;48.886;9.388;2022-12-20T06:29:47;17.63;;;8.43;;
34481;SDS011;20720;48.886;9.388;2022-12-20T06:32:16;15.07;;;9.00;;
34481;SDS011;20720;48.886;9.388;2022-12-20T06:34:41;16.58;;;8.77;;
34481;SDS011;20720;48.886;9.388;2022-12-20T06:37:06;14.10;;;7.88;;
34481;SDS011;20720;48.886;9.388;2022-12-20T06:39:32;14.70;;;8.27;;
34481;SDS011;20720;48.886;9.388;2022-12-20T06:41:57;13.10;;;8.35;;
34481;SDS011;20720;48.886;9.388;2022-12-20T06:44:22;14.70;;;8.30;;
34481;SDS011;20720;48.886;9.388;2022-12-20T06:46:48;13.95;;;8.38;;
34481;SDS011;20720;48.886;9.388;2022-12-20T06:49:13;15.05;;;8.00;;
34481;SDS011;20720;48.886;9.388;2022-12-20T06:51:38;15.02;;;8.18;;
34481;SDS011;20720;48.886;9.388;2022-12-20T06:54:04;14.18;;;8.18;;
34481;SDS011;20720;48.886;9.388;2022-12-20T06:56:29;14.77;;;8.25;;
34481;SDS011;20720;48.886;9.388;2022-12-20T06:58:54;14.50;;;7.93;;
34481;SDS011;20720;48.886;9.388;2022-12-20T07:01:19;13.93;;;7.55;;
34481;SDS011;20720;48.886;9.388;2022-12-20T07:03:45;16.67;;;8.40;;
34481;SDS011;20720;48.886;9.388;2022-12-20T07:06:10;15.40;;;8.70;;
34481;SDS011;20720;48.886;9.388;2022-12-20T07:08:35;18.95;;;9.63;;
34481;SDS011;20720;48.886;9.388;2022-12-20T07:11:04;17.05;;;9.55;;
34481;SDS011;20720;48.886;9.388;2022-12-20T07:13:30;19.92;;;9.75;;
34481;SDS011;20720;48.886;9.388;2022-12-20T07:15:56;18.33;;;9.73;;
34481;SDS011;20720;48.886;9.388;2022-12-20T07:18:23;16.65;;;9.13;;
34481;SDS011;20720;48.886;9.388;2022-12-20T07:20:48;19.05;;;9.18;;
34481;SDS011;20720;48.886;9.388;2022-12-20T07:23:14;14.93;;;8.85;;
34481;SDS011;20720;48.886;9.388;2022-12-20T07:25:39;14.48;;;8.50;;
34481;SDS011;20720;48.886;9.388;2022-12-20T07:28:04;17.73;;;8.73;;
34481;SDS011;20720;48.886;9.388;2022-12-20T07:30:30;14.23;;;7.75;;
34481;SDS011;20720;48.886;9.388;2022-12-20T07:32:55;14.38;;;8.70;;
34481;SDS011;20720;48.886;9.388;2022-12-20T07:35:20;15.35;;;8.63;;
34481;SDS011;20720;48.886;9.388;2022-12-20T07:37:45;14.38;;;7.72;;
34481;SDS011;20720;48.886;9.388;2022-12-20T07:40:11;15.38;;;8.45;;
34481;SDS011;20720;48.886;9.388;2022-12-20T07:42:36;13.73;;;7.70;;
34481;SDS011;20720;48.886;9.388;2022-12-20T07:45:02;19.40;;;11.23;;
34481;SDS011;20720;48.886;9.388;2022-12-20T07:47:27;20.25;;;10.93;;
34481;SDS011;20720;48.886;9.388;2022-12-20T07:49:53;19.38;;;11.02;;
34481;SDS011;20720;48.886;9.388;2022-12-20T07:52:20;18.92;;;10.20;;
34481;SDS011;20720;48.886;9.388;2022-12-20T07:54:52;20.33;;;11.65;;
34481;SDS011;20720;48.886;9.388;2022-12-20T07:58:03;22.00;;;12.30;;
34481;SDS011;20720;48.886;9.388;2022-12-20T08:00:17;24.73;;;12.07;;
34481;SDS011;20720;48.886;9.388;2022-12-20T08:02:53;25.48;;;13.07;;
34481;SDS011;20720;48.886;9.388;2022-12-20T08:05:23;35.30;;;13.25;;
34481;SDS011;20720;48.886;9.388;2022-12-20T08:07:48;22.35;;;11.85;;
34481;SDS011;20720;48.886;9.388;2022-12-20T08:10:14;23.98;;;12.70;;
34481;SDS011;20720;48.886;9.388;2022-12-20T08:12:42;23.15;;;12.05;;
34481;SDS011;20720;48.886;9.388;2022-12-20T08:15:09;25.50;;;13.18;;
34481;SDS011;20720;48.886;9.388;2022-12-20T08:17:35;25.40;;;12.43;;
34481;SDS011;20720;48.886;9.388;2022-12-20T08:20:00;24.17;;;12.55;;
34481;SDS011;20720;48.886;9.388;2022-12-20T08:22:25;20.25;;;11.52;;
34481;SDS011;20720;48.886;9.388;2022-12-20T08:24:51;21.80;;;11.25;;
34481;SDS011;20720;48.886;9.388;2022-12-20T08:27:16;19.23;;;10.55;;
34481;SDS011;20720;48.886;9.388;2022-12-20T08:29:41;24.33;;;11.85;;
34481;SDS011;20720;48.886;9.388;2022-12-20T08:32:06;24.30;;;12.57;;
34481;SDS011;20720;48.886;9.388;2022-12-20T08:34:32;26.20;;;12.70;;
34481;SDS011;20720;48.886;9.388;2022-12-20T08:36:57;24.40;;;11.13;;
34481;SDS011;20720;48.886;9.388;2022-12-20T08:39:23;20.13;;;10.40;;
34481;SDS011;20720;48.886;9.388;2022-12-20T08:41:48;19.08;;;10.43;;
34481;SDS011;20720;48.886;9.388;2022-12-20T08:44:13;19.52;;;9.77;;
34481;SDS011;20720;48.886;9.388;2022-12-20T08:46:39;17.73;;;9.38;;
34481;SDS011;20720;48.886;9.388;2022-12-20T08:49:04;20.13;;;9.00;;
34481;SDS011;20720;48.886;9.388;2022-12-20T08:51:30;15.68;;;8.52;;
34481;SDS011;20720;48.886;9.388;2022-12-20T08:53:55;13.60;;;7.80;;
34481;SDS011;20720;48.886;9.388;2022-12-20T08:56:21;16.75;;;9.68;;
34481;SDS011;20720;48.886;9.388;2022-12-20T08:58:46;17.58;;;10.05;;
34481;SDS011;20720;48.886;9.388;2022-12-20T09:01:13;36.20;;;18.23;;
34481;SDS011;20720;48.886;9.388;2022-12-20T09:03:40;32.42;;;18.23;;
34481;SDS011;20720;48.886;9.388;2022-12-20T09:06:07;23.02;;;13.52;;
34481;SDS011;20720;48.886;9.388;2022-12-20T09:08:37;17.63;;;9.88;;
34481;SDS011;20720;48.886;9.388;2022-12-20T09:11:07;16.58;;;8.48;;
34481;SDS011;20720;48.886;9.388;2022-12-20T09:13:35;13.43;;;8.25;;
34481;SDS011;20720;48.886;9.388;2022-12-20T09:16:02;13.05;;;6.45;;
34481;SDS011;20720;48.886;9.388;2022-12-20T09:18:28;13.05;;;7.35;;
34481;SDS011;20720;48.886;9.388;2022-12-20T09:20:54;11.10;;;6.50;;
34481;SDS011;20720;48.886;9.388;2022-12-20T09:23:19;11.50;;;6.32;;
34481;SDS011;20720;48.886;9.388;2022-12-20T09:25:44;11.57;;;6.45;;
34481;SDS011;20720;48.886;9.388;2022-12-20T09:28:10;10.88;;;6.43;;
34481;SDS011;20720;48.886;9.388;2022-12-20T09:30:35;10.75;;;6.13;;
34481;SDS011;20720;48.886;9.388;2022-12-20T09:33:00;13.82;;;6.00;;
34481;SDS011;20720;48.886;9.388;2022-12-20T09:35:25;9.98;;;5.53;;
34481;SDS011;20720;48.886;9.388;2022-12-20T09:37:51;10.05;;;5.32;;
34481;SDS011;20720;48.886;9.388;2022-12-20T09:40:17;10.35;;;5.28;;
34481;SDS011;20720;48.886;9.388;2022-12-20T09:42:44;8.88;;;5.15;;
34481;SDS011;20720;48.886;9.388;2022-12-20T09:45:12;27.70;;;13.27;;
34481;SDS011;20720;48.886;9.388;2022-12-20T09:47:45;20.08;;;9.27;;
34481;SDS011;20720;48.886;9.388;2022-12-20T09:50:14;12.07;;;6.50;;
34481;SDS011;20720;48.886;9.388;2022-12-20T09:55:29;10.23;;;5.25;;
34481;SDS011;20720;48.886;9.388;2022-12-20T10:00:41;8.65;;;4.55;;
34481;SDS011;20720;48.886;9.388;2022-12-20T10:03:30;8.75;;;4.97;;
34481;SDS011;20720;48.886;9.388;2022-12-20T10:05:57;10.32;;;5.10;;
34481;SDS011;20720;48.886;9.388;2022-12-20T10:08:36;7.50;;;4.45;;
34481;SDS011;20720;48.886;9.388;2022-12-20T10:11:17;7.43;;;4.68;;
34481;SDS011;20720;48.886;9.388;2022-12-20T10:14:34;5.72;;;3.55;;
34481;SDS011;20720;48.886;9.388;2022-12-20T10:16:52;8.27;;;4.53;;
34481;SDS011;20720;48.886;9.388;2022-12-20T10:22:06;11.32;;;6.38;;
34481;SDS011;20720;48.886;9.388;2022-12-20T10:24:38;9.27;;;5.22;;
34481;SDS011;20720;48.886;9.388;2022-12-20T10:27:14;9.50;;;5.43;;
34481;SDS011;20720;48.886;9.388;2022-12-20T10:29:42;11.18;;;4.82;;
34481;SDS011;20720;48.886;9.388;2022-12-20T10:32:12;8.00;;;4.15;;
34481;SDS011;20720;48.886;9.388;2022-12-20T10:34:42;8.98;;;4.45;;
34481;SDS011;20720;48.886;9.388;2022-12-20T10:37:14;8.02;;;4.95;;
34481;SDS011;20720;48.886;9.388;2022-12-20T10:39:41;9.38;;;5.00;;
34481;SDS011;20720;48.886;9.388;2022-12-20T10:44:51;9.57;;;5.43;;
34481;SDS011;20720;48.886;9.388;2022-12-20T10:47:22;11.68;;;5.47;;
34481;SDS011;20720;48.886;9.388;2022-12-20T10:50:07;8.70;;;5.47;;
34481;SDS011;20720;48.886;9.388;2022-12-20T10:52:38;10.40;;;5.53;;
34481;SDS011;20720;48.886;9.388;2022-12-20T10:55:06;8.75;;;5.28;;
34481;SDS011;20720;48.886;9.388;2022-12-20T10:58:01;14.73;;;6.25;;
34481;SDS011;20720;48.886;9.388;2022-12-20T11:00:29;10.68;;;6.25;;
34481;SDS011;20720;48.886;9.388;2022-12-20T11:03:03;12.30;;;7.68;;
34481;SDS011;20720;48.886;9.388;2022-12-20T11:05:34;11.15;;;7.03;;
34481;SDS011;20720;48.886;9.388;2022-12-20T11:08:08;12.20;;;7.57;;
34481;SDS011;20720;48.886;9.388;2022-12-20T11:10:39;12.85;;;8.07;;
34481;SDS011;20720;48.886;9.388;2022-12-20T11:13:04;17.38;;;8.43;;
34481;SDS011;20720;48.886;9.388;2022-12-20T11:15:34;15.13;;;8.45;;
34481;SDS011;20720;48.886;9.388;2022-12-20T11:23:38;14.23;;;7.15;;
34481;SDS011;20720;48.886;9.388;2022-12-20T11:26:27;13.48;;;8.57;;
34481;SDS011;20720;48.886;9.388;2022-12-20T11:34:48;15.90;;;8.15;;
34481;SDS011;20720;48.886;9.388;2022-12-20T11:37:25;12.88;;;8.35;;
34481;SDS011;20720;48.886;9.388;2022-12-20T11:43:09;20.73;;;8.35;;
34481;SDS011;20720;48.886;9.388;2022-12-20T11:45:44;13.93;;;8.50;;
34481;SDS011;20720;48.886;9.388;2022-12-20T11:54:11;18.67;;;9.70;;
34481;SDS011;20720;48.886;9.388;2022-12-20T11:56:42;21.15;;;11.35;;
34481;SDS011;20720;48.886;9.388;2022-12-20T11:59:11;24.02;;;12.32;;
34481;SDS011;20720;48.886;9.388;2022-12-20T12:01:51;25.10;;;12.48;;
34481;SDS011;20720;48.886;9.388;2022-12-20T12:04:23;18.42;;;10.43;;
34481;SDS011;20720;48.886;9.388;2022-12-20T12:06:58;17.17;;;10.60;;
34481;SDS011;20720;48.886;9.388;2022-12-20T12:09:37;15.27;;;9.20;;
34481;SDS011;20720;48.886;9.388;2022-12-20T12:12:22;17.40;;;9.75;;
34481;SDS011;20720;48.886;9.388;2022-12-20T12:14:57;15.15;;;8.40;;
34481;SDS011;20720;48.886;9.388;2022-12-20T12:20:17;10.00;;;5.80;;
34481;SDS011;20720;48.886;9.388;2022-12-20T12:22:48;9.52;;;5.30;;
34481;SDS011;20720;48.886;9.388;2022-12-20T12:25:17;10.00;;;5.15;;
34481;SDS011;20720;48.886;9.388;2022-12-20T12:27:43;10.30;;;5.60;;
34481;SDS011;20720;48.886;9.388;2022-12-20T12:30:12;9.50;;;5.30;;
34481;SDS011;20720;48.886;9.388;2022-12-20T12:32:40;10.35;;;5.88;;
34481;SDS011;20720;48.886;9.388;2022-12-20T12:41:05;8.15;;;4.68;;
34481;SDS011;20720;48.886;9.388;2022-12-20T12:43:54;12.48;;;5.00;;
34481;SDS011;20720;48.886;9.388;2022-12-20T12:46:25;9.45;;;5.15;;
34481;SDS011;20720;48.886;9.388;2022-12-20T12:49:05;10.32;;;5.53;;
34481;SDS011;20720;48.886;9.388;2022-12-20T12:51:36;10.18;;;5.28;;
34481;SDS011;20720;48.886;9.388;2022-12-20T12:54:17;8.50;;;5.25;;
34481;SDS011;20720;48.886;9.388;2022-12-20T13:04:29;9.18;;;5.68;;
34481;SDS011;20720;48.886;9.388;2022-12-20T13:09:58;9.30;;;5.05;;
34481;SDS011;20720;48.886;9.388;2022-12-20T13:19:52;8.83;;;5.20;;
34481;SDS011;20720;48.886;9.388;2022-12-20T13:22:22;8.93;;;4.53;;
34481;SDS011;20720;48.886;9.388;2022-12-20T13:27:39;8.25;;;4.60;;
34481;SDS011;20720;48.886;9.388;2022-12-20T13:40:56;11.10;;;4.25;;
34481;SDS011;20720;48.886;9.388;2022-12-20T13:43:27;8.07;;;4.53;;
34481;SDS011;20720;48.886;9.388;2022-12-20T13:48:26;9.40;;;3.88;;
34481;SDS011;20720;48.886;9.388;2022-12-20T13:50:55;7.05;;;3.80;;
34481;SDS011;20720;48.886;9.388;2022-12-20T13:53:22;7.22;;;3.75;;
34481;SDS011;20720;48.886;9.388;2022-12-20T13:55:51;7.43;;;4.05;;
34481;SDS011;20720;48.886;9.388;2022-12-20T13:58:27;7.78;;;4.13;;
34481;SDS011;20720;48.886;9.388;2022-12-20T14:01:04;10.80;;;4.85;;
34481;SDS011;20720;48.886;9.388;2022-12-20T14:03:34;8.32;;;4.72;;
34481;SDS011;20720;48.886;9.388;2022-12-20T14:06:08;12.48;;;6.40;;
34481;SDS011;20720;48.886;9.388;2022-12-20T14:08:35;10.07;;;5.72;;
34481;SDS011;20720;48.886;9.388;2022-12-20T14:13:38;8.38;;;4.28;;
34481;SDS011;20720;48.886;9.388;2022-12-20T14:16:08;10.23;;;3.85;;
34481;SDS011;20720;48.886;9.388;2022-12-20T14:18:39;8.68;;;4.00;;
34481;SDS011;20720;48.886;9.388;2022-12-20T14:21:05;6.93;;;4.28;;
34481;SDS011;20720;48.886;9.388;2022-12-20T14:23:35;6.95;;;3.50;;
34481;SDS011;20720;48.886;9.388;2022-12-20T14:26:04;7.40;;;3.67;;
34481;SDS011;20720;48.886;9.388;2022-12-20T14:28:34;7.60;;;4.07;;
34481;SDS011;20720;48.886;9.388;2022-12-20T14:31:02;9.57;;;4.03;;
34481;SDS011;20720;48.886;9.388;2022-12-20T14:33:38;7.07;;;3.97;;
34481;SDS011;20720;48.886;9.388;2022-12-20T14:36:09;6.35;;;3.53;;
34481;SDS011;20720;48.886;9.388;2022-12-20T14:38:35;8.05;;;3.90;;
34481;SDS011;20720;48.886;9.388;2022-12-20T14:41:01;9.35;;;3.92;;
34481;SDS011;20720;48.886;9.388;2022-12-20T14:43:31;8.25;;;3.80;;
34481;SDS011;20720;48.886;9.388;2022-12-20T14:46:17;6.80;;;3.65;;
34481;SDS011;20720;48.886;9.388;2022-12-20T14:48:44;6.63;;;3.50;;
34481;SDS011;20720;48.886;9.388;2022-12-20T14:51:10;7.22;;;3.33;;
34481;SDS011;20720;48.886;9.388;2022-12-20T14:53:37;9.35;;;4.45;;
34481;SDS011;20720;48.886;9.388;2022-12-20T14:56:04;8.30;;;4.55;;
34481;SDS011;20720;48.886;9.388;2022-12-20T14:58:31;6.72;;;3.95;;
34481;SDS011;20720;48.886;9.388;2022-12-20T15:00:59;10.07;;;3.92;;
34481;SDS011;20720;48.886;9.388;2022-12-20T15:03:26;8.30;;;3.90;;
34481;SDS011;20720;48.886;9.388;2022-12-20T15:05:58;5.80;;;3.70;;
34481;SDS011;20720;48.886;9.388;2022-12-20T15:08:25;8.10;;;4.15;;
34481;SDS011;20720;48.886;9.388;2022-12-20T15:13:29;9.23;;;4.20;;
34481;SDS011;20720;48.886;9.388;2022-12-20T15:15:59;7.20;;;4.10;;
34481;SDS011;20720;48.886;9.388;2022-12-20T15:18:25;8.65;;;5.15;;
34481;SDS011;20720;48.886;9.388;2022-12-20T15:20:58;11.60;;;6.10;;
34481;SDS011;20720;48.886;9.388;2022-12-20T15:23:26;10.85;;;5.82;;
34481;SDS011;20720;48.886;9.388;2022-12-20T15:25:52;10.60;;;5.90;;
34481;SDS011;20720;48.886;9.388;2022-12-20T15:28:18;8.40;;;5.05;;
34481;SDS011;20720;48.886;9.388;2022-12-20T15:30:46;9.48;;;4.85;;
34481;SDS011;20720;48.886;9.388;2022-12-20T15:33:13;8.93;;;5.10;;
34481;SDS011;20720;48.886;9.388;2022-12-20T15:35:43;12.80;;;6.80;;
34481;SDS011;20720;48.886;9.388;2022-12-20T15:38:12;11.75;;;6.28;;
34481;SDS011;20720;48.886;9.388;2022-12-20T15:40:40;10.00;;;5.45;;
34481;SDS011;20720;48.886;9.388;2022-12-20T15:43:08;9.35;;;4.88;;
34481;SDS011;20720;48.886;9.388;2022-12-20T15:45:37;12.00;;;5.05;;
34481;SDS011;20720;48.886;9.388;2022-12-20T15:48:02;7.45;;;3.70;;
34481;SDS011;20720;48.886;9.388;2022-12-20T15:50:28;9.65;;;4.40;;
34481;SDS011;20720;48.886;9.388;2022-12-20T15:52:53;8.07;;;4.20;;
34481;SDS011;20720;48.886;9.388;2022-12-20T15:55:19;9.82;;;4.57;;
34481;SDS011;20720;48.886;9.388;2022-12-20T15:57:44;7.07;;;3.90;;
34481;SDS011;20720;48.886;9.388;2022-12-20T16:00:11;8.07;;;3.90;;
34481;SDS011;20720;48.886;9.388;2022-12-20T16:02:37;8.85;;;4.93;;
34481;SDS011;20720;48.886;9.388;2022-12-20T16:05:02;9.43;;;5.10;;
34481;SDS011;20720;48.886;9.388;2022-12-20T16:07:28;8.85;;;4.32;;
34481;SDS011;20720;48.886;9.388;2022-12-20T16:09:53;9.77;;;4.53;;
34481;SDS011;20720;48.886;9.388;2022-12-20T16:12:26;8.57;;;4.00;;